sensor_id;sensor_type;location;lat;lon;timestamp;P1;durP1;ratioP1;P2;durP2;ratioP2
46391;SDS011;32098;49.448;7.904;2023-02-11T00:00:10;37.03;;;23.00;;
46391;SDS011;32098;49.448;7.904;2023-02-11T00:02:38;41.77;;;24.73;;
46391;SDS011;32098;49.448;7.904;2023-02-11T00:05:04;38.93;;;25.40;;
46391;SDS011;32098;49.448;7.904;2023-02-11T00:07:32;43.00;;;24.70;;
46391;SDS011;32098;49.448;7.904;2023-02-11T00:09:59;46.67;;;26.97;;
46391;SDS011;32098;49.448;7.904;2023-02-11T00:12:28;47.63;;;26.30;;
46391;SDS011;32098;49.448;7.904;2023-02-11T00:14:54;45.70;;;26.70;;
46391;SDS011;32098;49.448;7.904;2023-02-11T00:17:21;44.50;;;26.33;;
46391;SDS011;32098;49.448;7.904;2023-02-11T00:19:48;41.37;;;24.40;;
46391;SDS011;32098;49.448;7.904;2023-02-11T00:22:16;41.07;;;24.90;;
46391;SDS011;32098;49.448;7.904;2023-02-11T00:24:42;45.37;;;26.00;;
46391;SDS011;32098;49.448;7.904;2023-02-11T00:27:09;40.73;;;24.37;;
46391;SDS011;32098;49.448;7.904;2023-02-11T00:29:36;43.20;;;25.50;;
46391;SDS011;32098;49.448;7.904;2023-02-11T00:32:03;41.53;;;25.50;;
46391;SDS011;32098;49.448;7.904;2023-02-11T00:34:31;41.87;;;25.47;;
46391;SDS011;32098;49.448;7.904;2023-02-11T00:37:00;47.70;;;25.73;;
46391;SDS011;32098;49.448;7.904;2023-02-11T00:39:27;40.67;;;25.53;;
46391;SDS011;32098;49.448;7.904;2023-02-11T00:41:54;43.97;;;25.27;;
46391;SDS011;32098;49.448;7.904;2023-02-11T00:44:21;43.80;;;26.30;;
46391;SDS011;32098;49.448;7.904;2023-02-11T00:46:47;40.70;;;25.60;;
46391;SDS011;32098;49.448;7.904;2023-02-11T00:49:14;46.00;;;27.13;;
46391;SDS011;32098;49.448;7.904;2023-02-11T00:51:41;50.43;;;28.17;;
46391;SDS011;32098;49.448;7.904;2023-02-11T00:54:07;47.00;;;27.70;;
46391;SDS011;32098;49.448;7.904;2023-02-11T00:56:34;51.60;;;28.70;;
46391;SDS011;32098;49.448;7.904;2023-02-11T00:59:01;51.07;;;28.67;;
46391;SDS011;32098;49.448;7.904;2023-02-11T01:01:27;45.60;;;27.90;;
46391;SDS011;32098;49.448;7.904;2023-02-11T01:03:54;48.63;;;27.73;;
46391;SDS011;32098;49.448;7.904;2023-02-11T01:06:21;45.83;;;26.83;;
46391;SDS011;32098;49.448;7.904;2023-02-11T01:08:48;43.43;;;27.13;;
46391;SDS011;32098;49.448;7.904;2023-02-11T01:11:16;44.07;;;26.60;;
46391;SDS011;32098;49.448;7.904;2023-02-11T01:13:46;44.87;;;26.07;;
46391;SDS011;32098;49.448;7.904;2023-02-11T01:16:14;46.53;;;27.60;;
46391;SDS011;32098;49.448;7.904;2023-02-11T01:18:41;49.10;;;28.27;;
46391;SDS011;32098;49.448;7.904;2023-02-11T01:21:09;45.80;;;26.80;;
46391;SDS011;32098;49.448;7.904;2023-02-11T01:23:36;48.33;;;26.37;;
46391;SDS011;32098;49.448;7.904;2023-02-11T01:26:03;51.57;;;28.07;;
46391;SDS011;32098;49.448;7.904;2023-02-11T01:28:30;45.60;;;25.73;;
46391;SDS011;32098;49.448;7.904;2023-02-11T01:30:59;39.73;;;24.77;;
46391;SDS011;32098;49.448;7.904;2023-02-11T01:33:27;40.50;;;23.53;;
46391;SDS011;32098;49.448;7.904;2023-02-11T01:35:53;37.33;;;23.37;;
46391;SDS011;32098;49.448;7.904;2023-02-11T01:38:21;39.07;;;24.73;;
46391;SDS011;32098;49.448;7.904;2023-02-11T01:40:59;39.07;;;24.80;;
46391;SDS011;32098;49.448;7.904;2023-02-11T01:43:31;38.77;;;24.07;;
46391;SDS011;32098;49.448;7.904;2023-02-11T01:48:33;39.20;;;23.77;;
46391;SDS011;32098;49.448;7.904;2023-02-11T01:51:25;40.20;;;24.13;;
46391;SDS011;32098;49.448;7.904;2023-02-11T01:53:54;37.77;;;23.97;;
46391;SDS011;32098;49.448;7.904;2023-02-11T01:56:41;38.47;;;24.07;;
46391;SDS011;32098;49.448;7.904;2023-02-11T01:59:36;38.47;;;23.50;;
46391;SDS011;32098;49.448;7.904;2023-02-11T02:02:07;38.73;;;25.10;;
46391;SDS011;32098;49.448;7.904;2023-02-11T02:04:38;41.03;;;23.80;;
46391;SDS011;32098;49.448;7.904;2023-02-11T02:07:13;42.60;;;24.67;;
46391;SDS011;32098;49.448;7.904;2023-02-11T02:09:51;39.13;;;23.57;;
46391;SDS011;32098;49.448;7.904;2023-02-11T02:12:23;42.47;;;24.23;;
46391;SDS011;32098;49.448;7.904;2023-02-11T02:14:49;41.83;;;25.60;;
46391;SDS011;32098;49.448;7.904;2023-02-11T02:17:22;39.50;;;25.27;;
46391;SDS011;32098;49.448;7.904;2023-02-11T02:28:34;41.30;;;24.23;;
46391;SDS011;32098;49.448;7.904;2023-02-11T02:34:01;40.10;;;22.27;;
46391;SDS011;32098;49.448;7.904;2023-02-11T02:36:46;38.10;;;22.87;;
46391;SDS011;32098;49.448;7.904;2023-02-11T02:39:25;36.40;;;22.47;;
46391;SDS011;32098;49.448;7.904;2023-02-11T02:41:54;37.80;;;22.07;;
46391;SDS011;32098;49.448;7.904;2023-02-11T02:44:22;38.10;;;21.23;;
46391;SDS011;32098;49.448;7.904;2023-02-11T02:46:49;36.47;;;22.67;;
46391;SDS011;32098;49.448;7.904;2023-02-11T02:49:16;37.63;;;23.17;;
46391;SDS011;32098;49.448;7.904;2023-02-11T03:03:28;38.63;;;20.67;;
46391;SDS011;32098;49.448;7.904;2023-02-11T03:06:20;36.40;;;20.73;;
46391;SDS011;32098;49.448;7.904;2023-02-11T03:09:25;36.90;;;22.23;;
46391;SDS011;32098;49.448;7.904;2023-02-11T03:11:57;40.13;;;23.00;;
46391;SDS011;32098;49.448;7.904;2023-02-11T03:14:27;33.97;;;21.10;;
46391;SDS011;32098;49.448;7.904;2023-02-11T03:16:56;37.47;;;22.57;;
46391;SDS011;32098;49.448;7.904;2023-02-11T03:19:28;34.97;;;22.17;;
46391;SDS011;32098;49.448;7.904;2023-02-11T03:21:58;34.43;;;21.27;;
46391;SDS011;32098;49.448;7.904;2023-02-11T03:24:27;35.80;;;20.40;;
46391;SDS011;32098;49.448;7.904;2023-02-11T03:26:57;33.83;;;21.37;;
46391;SDS011;32098;49.448;7.904;2023-02-11T03:29:36;37.03;;;21.53;;
46391;SDS011;32098;49.448;7.904;2023-02-11T03:34:53;42.47;;;24.07;;
46391;SDS011;32098;49.448;7.904;2023-02-11T03:40:00;42.27;;;25.83;;
46391;SDS011;32098;49.448;7.904;2023-02-11T03:42:45;42.27;;;24.43;;
46391;SDS011;32098;49.448;7.904;2023-02-11T03:45:17;42.87;;;24.60;;
46391;SDS011;32098;49.448;7.904;2023-02-11T03:47:54;38.67;;;23.43;;
46391;SDS011;32098;49.448;7.904;2023-02-11T03:50:25;39.57;;;22.53;;
46391;SDS011;32098;49.448;7.904;2023-02-11T03:52:55;40.40;;;23.60;;
46391;SDS011;32098;49.448;7.904;2023-02-11T03:55:24;35.87;;;22.83;;
46391;SDS011;32098;49.448;7.904;2023-02-11T03:57:52;41.40;;;23.07;;
46391;SDS011;32098;49.448;7.904;2023-02-11T04:00:19;42.00;;;24.77;;
46391;SDS011;32098;49.448;7.904;2023-02-11T04:02:45;43.53;;;23.67;;
46391;SDS011;32098;49.448;7.904;2023-02-11T04:05:13;44.37;;;23.57;;
46391;SDS011;32098;49.448;7.904;2023-02-11T04:07:41;41.90;;;23.63;;
46391;SDS011;32098;49.448;7.904;2023-02-11T04:10:08;38.43;;;22.67;;
46391;SDS011;32098;49.448;7.904;2023-02-11T04:12:34;37.53;;;21.73;;
46391;SDS011;32098;49.448;7.904;2023-02-11T04:15:02;38.63;;;22.37;;
46391;SDS011;32098;49.448;7.904;2023-02-11T04:17:28;39.53;;;22.70;;
46391;SDS011;32098;49.448;7.904;2023-02-11T04:19:55;35.27;;;22.47;;
46391;SDS011;32098;49.448;7.904;2023-02-11T04:22:22;40.23;;;22.53;;
46391;SDS011;32098;49.448;7.904;2023-02-11T04:24:48;38.73;;;22.73;;
46391;SDS011;32098;49.448;7.904;2023-02-11T04:27:15;39.13;;;22.93;;
46391;SDS011;32098;49.448;7.904;2023-02-11T04:29:42;36.67;;;22.97;;
46391;SDS011;32098;49.448;7.904;2023-02-11T04:32:09;34.27;;;22.00;;
46391;SDS011;32098;49.448;7.904;2023-02-11T04:34:36;32.47;;;20.63;;
46391;SDS011;32098;49.448;7.904;2023-02-11T04:37:03;36.07;;;20.90;;
46391;SDS011;32098;49.448;7.904;2023-02-11T04:39:29;31.40;;;19.53;;
46391;SDS011;32098;49.448;7.904;2023-02-11T04:41:56;34.20;;;20.33;;
46391;SDS011;32098;49.448;7.904;2023-02-11T04:44:22;31.67;;;19.50;;
46391;SDS011;32098;49.448;7.904;2023-02-11T04:46:49;35.33;;;20.17;;
46391;SDS011;32098;49.448;7.904;2023-02-11T04:49:15;33.60;;;18.00;;
46391;SDS011;32098;49.448;7.904;2023-02-11T04:51:42;35.80;;;18.47;;
46391;SDS011;32098;49.448;7.904;2023-02-11T04:54:14;34.33;;;19.70;;
46391;SDS011;32098;49.448;7.904;2023-02-11T04:56:41;31.83;;;18.37;;
46391;SDS011;32098;49.448;7.904;2023-02-11T04:59:08;31.33;;;17.30;;
46391;SDS011;32098;49.448;7.904;2023-02-11T05:01:34;32.33;;;18.47;;
46391;SDS011;32098;49.448;7.904;2023-02-11T05:04:01;29.73;;;18.37;;
46391;SDS011;32098;49.448;7.904;2023-02-11T05:06:28;30.17;;;18.23;;
46391;SDS011;32098;49.448;7.904;2023-02-11T05:08:54;31.10;;;17.60;;
46391;SDS011;32098;49.448;7.904;2023-02-11T05:11:22;31.77;;;17.43;;
46391;SDS011;32098;49.448;7.904;2023-02-11T05:13:49;29.80;;;18.07;;
46391;SDS011;32098;49.448;7.904;2023-02-11T05:16:16;27.40;;;16.60;;
46391;SDS011;32098;49.448;7.904;2023-02-11T05:18:43;31.23;;;16.80;;
46391;SDS011;32098;49.448;7.904;2023-02-11T05:21:12;26.43;;;16.37;;
46391;SDS011;32098;49.448;7.904;2023-02-11T05:23:41;28.27;;;17.23;;
46391;SDS011;32098;49.448;7.904;2023-02-11T05:26:08;27.03;;;15.83;;
46391;SDS011;32098;49.448;7.904;2023-02-11T05:28:34;30.03;;;17.13;;
46391;SDS011;32098;49.448;7.904;2023-02-11T05:31:01;27.20;;;17.00;;
46391;SDS011;32098;49.448;7.904;2023-02-11T05:33:28;26.33;;;16.27;;
46391;SDS011;32098;49.448;7.904;2023-02-11T05:35:58;26.97;;;16.00;;
46391;SDS011;32098;49.448;7.904;2023-02-11T05:38:29;31.37;;;17.13;;
46391;SDS011;32098;49.448;7.904;2023-02-11T05:40:56;27.77;;;16.50;;
46391;SDS011;32098;49.448;7.904;2023-02-11T05:43:22;27.73;;;16.33;;
46391;SDS011;32098;49.448;7.904;2023-02-11T05:45:49;27.20;;;15.97;;
46391;SDS011;32098;49.448;7.904;2023-02-11T05:48:16;26.27;;;15.03;;
46391;SDS011;32098;49.448;7.904;2023-02-11T05:50:43;26.47;;;16.17;;
46391;SDS011;32098;49.448;7.904;2023-02-11T05:53:10;29.67;;;15.03;;
46391;SDS011;32098;49.448;7.904;2023-02-11T05:55:37;33.47;;;18.17;;
46391;SDS011;32098;49.448;7.904;2023-02-11T05:58:03;42.30;;;23.93;;
46391;SDS011;32098;49.448;7.904;2023-02-11T06:00:31;38.03;;;23.13;;
46391;SDS011;32098;49.448;7.904;2023-02-11T06:02:57;34.23;;;21.33;;
46391;SDS011;32098;49.448;7.904;2023-02-11T06:05:24;31.47;;;21.03;;
46391;SDS011;32098;49.448;7.904;2023-02-11T06:07:51;31.67;;;20.10;;
46391;SDS011;32098;49.448;7.904;2023-02-11T06:10:18;31.70;;;18.80;;
46391;SDS011;32098;49.448;7.904;2023-02-11T06:12:44;26.83;;;16.70;;
46391;SDS011;32098;49.448;7.904;2023-02-11T06:15:12;23.80;;;14.93;;
46391;SDS011;32098;49.448;7.904;2023-02-11T06:17:38;26.13;;;15.90;;
46391;SDS011;32098;49.448;7.904;2023-02-11T06:20:06;28.13;;;15.80;;
46391;SDS011;32098;49.448;7.904;2023-02-11T06:22:34;26.93;;;15.17;;
46391;SDS011;32098;49.448;7.904;2023-02-11T06:25:01;23.23;;;14.87;;
46391;SDS011;32098;49.448;7.904;2023-02-11T06:27:27;24.90;;;14.90;;
46391;SDS011;32098;49.448;7.904;2023-02-11T06:29:54;27.53;;;15.30;;
46391;SDS011;32098;49.448;7.904;2023-02-11T06:32:21;24.10;;;14.30;;
46391;SDS011;32098;49.448;7.904;2023-02-11T06:35:07;25.10;;;15.30;;
46391;SDS011;32098;49.448;7.904;2023-02-11T06:37:37;22.93;;;14.30;;
46391;SDS011;32098;49.448;7.904;2023-02-11T06:40:04;26.37;;;15.60;;
46391;SDS011;32098;49.448;7.904;2023-02-11T06:42:31;26.67;;;15.27;;
46391;SDS011;32098;49.448;7.904;2023-02-11T06:44:57;25.77;;;16.20;;
46391;SDS011;32098;49.448;7.904;2023-02-11T06:47:24;22.93;;;14.47;;
46391;SDS011;32098;49.448;7.904;2023-02-11T06:49:51;29.33;;;15.73;;
46391;SDS011;32098;49.448;7.904;2023-02-11T06:52:17;22.50;;;14.20;;
46391;SDS011;32098;49.448;7.904;2023-02-11T06:54:44;27.10;;;15.80;;
46391;SDS011;32098;49.448;7.904;2023-02-11T06:57:11;24.13;;;15.53;;
46391;SDS011;32098;49.448;7.904;2023-02-11T06:59:38;27.23;;;16.60;;
46391;SDS011;32098;49.448;7.904;2023-02-11T07:02:04;26.17;;;16.00;;
46391;SDS011;32098;49.448;7.904;2023-02-11T07:04:31;26.70;;;15.43;;
46391;SDS011;32098;49.448;7.904;2023-02-11T07:06:58;23.17;;;14.17;;
46391;SDS011;32098;49.448;7.904;2023-02-11T07:09:24;28.17;;;16.03;;
46391;SDS011;32098;49.448;7.904;2023-02-11T07:11:51;24.10;;;14.77;;
46391;SDS011;32098;49.448;7.904;2023-02-11T07:14:17;27.20;;;15.73;;
46391;SDS011;32098;49.448;7.904;2023-02-11T07:16:44;24.23;;;14.77;;
46391;SDS011;32098;49.448;7.904;2023-02-11T07:19:11;26.53;;;15.53;;
46391;SDS011;32098;49.448;7.904;2023-02-11T07:21:37;26.37;;;16.23;;
46391;SDS011;32098;49.448;7.904;2023-02-11T07:24:08;26.63;;;15.50;;
46391;SDS011;32098;49.448;7.904;2023-02-11T07:26:36;23.37;;;14.70;;
46391;SDS011;32098;49.448;7.904;2023-02-11T07:29:03;25.57;;;15.07;;
46391;SDS011;32098;49.448;7.904;2023-02-11T07:31:30;27.10;;;15.40;;
46391;SDS011;32098;49.448;7.904;2023-02-11T07:33:58;26.77;;;15.97;;
46391;SDS011;32098;49.448;7.904;2023-02-11T07:36:26;25.43;;;15.70;;
46391;SDS011;32098;49.448;7.904;2023-02-11T07:38:54;29.00;;;15.90;;
46391;SDS011;32098;49.448;7.904;2023-02-11T07:41:21;25.57;;;15.83;;
46391;SDS011;32098;49.448;7.904;2023-02-11T07:43:49;26.67;;;15.93;;
46391;SDS011;32098;49.448;7.904;2023-02-11T07:46:20;27.77;;;15.47;;
46391;SDS011;32098;49.448;7.904;2023-02-11T07:48:48;25.90;;;15.23;;
46391;SDS011;32098;49.448;7.904;2023-02-11T07:51:22;24.43;;;14.83;;
46391;SDS011;32098;49.448;7.904;2023-02-11T07:53:50;27.97;;;15.87;;
46391;SDS011;32098;49.448;7.904;2023-02-11T07:56:18;25.30;;;15.60;;
46391;SDS011;32098;49.448;7.904;2023-02-11T07:58:45;27.87;;;15.63;;
46391;SDS011;32098;49.448;7.904;2023-02-11T08:01:14;24.67;;;16.13;;
46391;SDS011;32098;49.448;7.904;2023-02-11T08:03:53;29.47;;;17.20;;
46391;SDS011;32098;49.448;7.904;2023-02-11T08:06:21;28.13;;;15.33;;
46391;SDS011;32098;49.448;7.904;2023-02-11T08:08:49;24.47;;;14.40;;
46391;SDS011;32098;49.448;7.904;2023-02-11T08:11:18;24.67;;;13.77;;
46391;SDS011;32098;49.448;7.904;2023-02-11T08:13:47;25.40;;;15.20;;
46391;SDS011;32098;49.448;7.904;2023-02-11T08:16:16;21.43;;;13.57;;
46391;SDS011;32098;49.448;7.904;2023-02-11T08:18:45;25.67;;;14.63;;
46391;SDS011;32098;49.448;7.904;2023-02-11T08:21:13;24.27;;;14.73;;
46391;SDS011;32098;49.448;7.904;2023-02-11T08:23:40;22.13;;;14.37;;
46391;SDS011;32098;49.448;7.904;2023-02-11T08:26:09;24.47;;;14.03;;
46391;SDS011;32098;49.448;7.904;2023-02-11T08:28:41;23.70;;;15.10;;
46391;SDS011;32098;49.448;7.904;2023-02-11T08:31:12;23.63;;;14.00;;
46391;SDS011;32098;49.448;7.904;2023-02-11T08:33:47;23.77;;;14.50;;
46391;SDS011;32098;49.448;7.904;2023-02-11T08:36:15;23.10;;;13.57;;
46391;SDS011;32098;49.448;7.904;2023-02-11T08:38:43;23.60;;;14.30;;
46391;SDS011;32098;49.448;7.904;2023-02-11T08:41:10;23.33;;;14.47;;
46391;SDS011;32098;49.448;7.904;2023-02-11T08:43:37;23.40;;;14.17;;
46391;SDS011;32098;49.448;7.904;2023-02-11T08:46:07;23.37;;;14.37;;
46391;SDS011;32098;49.448;7.904;2023-02-11T08:48:35;20.27;;;13.20;;
46391;SDS011;32098;49.448;7.904;2023-02-11T08:51:09;23.30;;;13.93;;
46391;SDS011;32098;49.448;7.904;2023-02-11T08:53:39;27.60;;;15.43;;
46391;SDS011;32098;49.448;7.904;2023-02-11T08:56:07;23.97;;;14.30;;
46391;SDS011;32098;49.448;7.904;2023-02-11T08:58:38;23.43;;;14.07;;
46391;SDS011;32098;49.448;7.904;2023-02-11T09:01:09;23.57;;;15.03;;
46391;SDS011;32098;49.448;7.904;2023-02-11T09:03:37;23.67;;;14.60;;
46391;SDS011;32098;49.448;7.904;2023-02-11T09:06:04;25.20;;;15.80;;
46391;SDS011;32098;49.448;7.904;2023-02-11T09:08:33;23.03;;;14.57;;
46391;SDS011;32098;49.448;7.904;2023-02-11T09:11:01;26.37;;;15.13;;
46391;SDS011;32098;49.448;7.904;2023-02-11T09:13:29;24.37;;;15.10;;
46391;SDS011;32098;49.448;7.904;2023-02-11T09:15:56;25.53;;;16.33;;
46391;SDS011;32098;49.448;7.904;2023-02-11T09:18:24;23.07;;;14.73;;
46391;SDS011;32098;49.448;7.904;2023-02-11T09:20:51;31.97;;;16.03;;
46391;SDS011;32098;49.448;7.904;2023-02-11T09:23:18;23.53;;;14.87;;
46391;SDS011;32098;49.448;7.904;2023-02-11T09:25:44;23.03;;;14.60;;
46391;SDS011;32098;49.448;7.904;2023-02-11T09:28:11;26.37;;;15.53;;
46391;SDS011;32098;49.448;7.904;2023-02-11T09:30:38;24.77;;;15.80;;
46391;SDS011;32098;49.448;7.904;2023-02-11T09:33:05;26.57;;;15.80;;
46391;SDS011;32098;49.448;7.904;2023-02-11T09:35:31;27.77;;;16.43;;
46391;SDS011;32098;49.448;7.904;2023-02-11T09:37:59;24.47;;;15.00;;
46391;SDS011;32098;49.448;7.904;2023-02-11T09:40:25;25.77;;;15.70;;
46391;SDS011;32098;49.448;7.904;2023-02-11T09:45:43;26.40;;;16.50;;
46391;SDS011;32098;49.448;7.904;2023-02-11T09:48:14;24.43;;;15.67;;
46391;SDS011;32098;49.448;7.904;2023-02-11T09:50:51;25.03;;;15.60;;
46391;SDS011;32098;49.448;7.904;2023-02-11T09:53:22;26.77;;;15.10;;
46391;SDS011;32098;49.448;7.904;2023-02-11T09:55:51;26.00;;;15.50;;
46391;SDS011;32098;49.448;7.904;2023-02-11T09:58:28;25.40;;;16.17;;
46391;SDS011;32098;49.448;7.904;2023-02-11T10:01:23;22.13;;;14.87;;
46391;SDS011;32098;49.448;7.904;2023-02-11T10:04:03;26.77;;;15.50;;
46391;SDS011;32098;49.448;7.904;2023-02-11T10:06:41;23.33;;;14.90;;
46391;SDS011;32098;49.448;7.904;2023-02-11T10:09:15;20.97;;;14.60;;
46391;SDS011;32098;49.448;7.904;2023-02-11T10:11:53;22.30;;;14.47;;
46391;SDS011;32098;49.448;7.904;2023-02-11T10:20:07;25.67;;;14.80;;
46391;SDS011;32098;49.448;7.904;2023-02-11T10:22:42;23.50;;;15.13;;
46391;SDS011;32098;49.448;7.904;2023-02-11T10:25:24;21.90;;;14.57;;
46391;SDS011;32098;49.448;7.904;2023-02-11T10:27:56;22.80;;;14.10;;
46391;SDS011;32098;49.448;7.904;2023-02-11T10:30:30;25.03;;;14.70;;
46391;SDS011;32098;49.448;7.904;2023-02-11T10:33:02;22.93;;;14.40;;
46391;SDS011;32098;49.448;7.904;2023-02-11T10:35:31;21.63;;;14.57;;
46391;SDS011;32098;49.448;7.904;2023-02-11T10:37:58;28.13;;;17.30;;
46391;SDS011;32098;49.448;7.904;2023-02-11T10:40:27;27.27;;;17.50;;
46391;SDS011;32098;49.448;7.904;2023-02-11T10:43:02;30.37;;;18.33;;
46391;SDS011;32098;49.448;7.904;2023-02-11T10:45:32;22.73;;;15.17;;
46391;SDS011;32098;49.448;7.904;2023-02-11T10:48:05;24.10;;;15.57;;
46391;SDS011;32098;49.448;7.904;2023-02-11T10:53:39;27.80;;;17.40;;
46391;SDS011;32098;49.448;7.904;2023-02-11T10:56:06;30.60;;;19.30;;
46391;SDS011;32098;49.448;7.904;2023-02-11T10:58:40;42.27;;;24.10;;
46391;SDS011;32098;49.448;7.904;2023-02-11T11:01:11;29.40;;;17.07;;
46391;SDS011;32098;49.448;7.904;2023-02-11T11:03:50;28.63;;;17.30;;
46391;SDS011;32098;49.448;7.904;2023-02-11T11:06:27;42.00;;;24.60;;
46391;SDS011;32098;49.448;7.904;2023-02-11T11:08:56;34.83;;;21.50;;
46391;SDS011;32098;49.448;7.904;2023-02-11T11:11:24;40.77;;;25.43;;
46391;SDS011;32098;49.448;7.904;2023-02-11T11:21:46;23.70;;;16.50;;
46391;SDS011;32098;49.448;7.904;2023-02-11T11:24:20;31.63;;;22.10;;
46391;SDS011;32098;49.448;7.904;2023-02-11T11:26:57;30.10;;;19.73;;
46391;SDS011;32098;49.448;7.904;2023-02-11T11:29:41;26.30;;;17.63;;
46391;SDS011;32098;49.448;7.904;2023-02-11T11:32:20;28.70;;;17.53;;
46391;SDS011;32098;49.448;7.904;2023-02-11T11:34:51;33.57;;;22.67;;
46391;SDS011;32098;49.448;7.904;2023-02-11T11:37:22;27.97;;;18.73;;
46391;SDS011;32098;49.448;7.904;2023-02-11T11:39:55;26.33;;;17.77;;
46391;SDS011;32098;49.448;7.904;2023-02-11T11:42:25;27.83;;;20.17;;
46391;SDS011;32098;49.448;7.904;2023-02-11T11:47:51;25.10;;;16.67;;
46391;SDS011;32098;49.448;7.904;2023-02-11T11:58:44;23.97;;;16.03;;
46391;SDS011;32098;49.448;7.904;2023-02-11T12:16:41;27.23;;;17.10;;
46391;SDS011;32098;49.448;7.904;2023-02-11T12:24:53;24.00;;;16.00;;
46391;SDS011;32098;49.448;7.904;2023-02-11T12:36:27;24.83;;;16.40;;
46391;SDS011;32098;49.448;7.904;2023-02-11T12:45:28;30.40;;;18.13;;
46391;SDS011;32098;49.448;7.904;2023-02-11T12:54:01;25.70;;;16.47;;
46391;SDS011;32098;49.448;7.904;2023-02-11T12:56:38;27.37;;;17.70;;
46391;SDS011;32098;49.448;7.904;2023-02-11T13:02:36;31.80;;;17.83;;
46391;SDS011;32098;49.448;7.904;2023-02-11T13:11:06;26.43;;;16.90;;
46391;SDS011;32098;49.448;7.904;2023-02-11T13:13:46;28.40;;;17.70;;
46391;SDS011;32098;49.448;7.904;2023-02-11T13:19:16;29.13;;;17.47;;
46391;SDS011;32098;49.448;7.904;2023-02-11T13:24:42;28.77;;;17.93;;
46391;SDS011;32098;49.448;7.904;2023-02-11T13:30:12;25.03;;;17.00;;
46391;SDS011;32098;49.448;7.904;2023-02-11T13:35:31;24.40;;;15.37;;
46391;SDS011;32098;49.448;7.904;2023-02-11T13:38:18;24.83;;;16.03;;
46391;SDS011;32098;49.448;7.904;2023-02-11T13:43:31;24.47;;;14.37;;
46391;SDS011;32098;49.448;7.904;2023-02-11T13:46:21;22.87;;;14.10;;
46391;SDS011;32098;49.448;7.904;2023-02-11T13:48:50;19.50;;;12.03;;
46391;SDS011;32098;49.448;7.904;2023-02-11T13:51:32;18.53;;;11.70;;
46391;SDS011;32098;49.448;7.904;2023-02-11T13:54:02;17.30;;;11.73;;
46391;SDS011;32098;49.448;7.904;2023-02-11T13:56:31;16.70;;;11.13;;
46391;SDS011;32098;49.448;7.904;2023-02-11T13:59:00;21.33;;;11.43;;
46391;SDS011;32098;49.448;7.904;2023-02-11T14:02:00;16.27;;;10.90;;
46391;SDS011;32098;49.448;7.904;2023-02-11T14:05:11;18.70;;;10.90;;
46391;SDS011;32098;49.448;7.904;2023-02-11T14:08:10;16.87;;;9.93;;
46391;SDS011;32098;49.448;7.904;2023-02-11T14:13:27;16.07;;;9.57;;
46391;SDS011;32098;49.448;7.904;2023-02-11T14:16:16;15.53;;;9.67;;
46391;SDS011;32098;49.448;7.904;2023-02-11T14:19:02;16.37;;;10.07;;
46391;SDS011;32098;49.448;7.904;2023-02-11T14:21:33;16.10;;;9.73;;
46391;SDS011;32098;49.448;7.904;2023-02-11T14:29:40;16.30;;;10.60;;
46391;SDS011;32098;49.448;7.904;2023-02-11T14:32:16;17.27;;;10.23;;
46391;SDS011;32098;49.448;7.904;2023-02-11T14:35:03;15.63;;;10.27;;
46391;SDS011;32098;49.448;7.904;2023-02-11T14:38:00;17.80;;;10.83;;
46391;SDS011;32098;49.448;7.904;2023-02-11T14:40:48;17.03;;;10.03;;
46391;SDS011;32098;49.448;7.904;2023-02-11T14:43:24;16.20;;;10.40;;
46391;SDS011;32098;49.448;7.904;2023-02-11T14:45:56;17.50;;;10.27;;
46391;SDS011;32098;49.448;7.904;2023-02-11T14:48:27;16.43;;;11.17;;
46391;SDS011;32098;49.448;7.904;2023-02-11T14:50:57;17.93;;;11.40;;
46391;SDS011;32098;49.448;7.904;2023-02-11T14:53:28;16.27;;;10.90;;
46391;SDS011;32098;49.448;7.904;2023-02-11T14:55:56;15.23;;;10.23;;
46391;SDS011;32098;49.448;7.904;2023-02-11T14:58:25;15.57;;;9.40;;
46391;SDS011;32098;49.448;7.904;2023-02-11T15:03:47;16.57;;;11.17;;
46391;SDS011;32098;49.448;7.904;2023-02-11T15:06:28;16.33;;;10.27;;
46391;SDS011;32098;49.448;7.904;2023-02-11T15:08:58;16.70;;;10.90;;
46391;SDS011;32098;49.448;7.904;2023-02-11T15:11:28;15.97;;;10.67;;
46391;SDS011;32098;49.448;7.904;2023-02-11T15:14:05;14.90;;;9.53;;
46391;SDS011;32098;49.448;7.904;2023-02-11T15:16:56;16.23;;;10.67;;
46391;SDS011;32098;49.448;7.904;2023-02-11T15:19:36;17.37;;;10.10;;
46391;SDS011;32098;49.448;7.904;2023-02-11T15:22:16;13.93;;;9.50;;
46391;SDS011;32098;49.448;7.904;2023-02-11T15:24:45;13.13;;;9.30;;
46391;SDS011;32098;49.448;7.904;2023-02-11T15:27:23;14.17;;;9.23;;
46391;SDS011;32098;49.448;7.904;2023-02-11T15:29:50;15.70;;;10.00;;
46391;SDS011;32098;49.448;7.904;2023-02-11T15:32:21;14.40;;;9.47;;
46391;SDS011;32098;49.448;7.904;2023-02-11T15:34:51;15.57;;;9.97;;
46391;SDS011;32098;49.448;7.904;2023-02-11T15:37:23;15.10;;;9.90;;
46391;SDS011;32098;49.448;7.904;2023-02-11T15:39:54;14.50;;;9.80;;
46391;SDS011;32098;49.448;7.904;2023-02-11T15:42:36;16.10;;;10.67;;
46391;SDS011;32098;49.448;7.904;2023-02-11T15:48:15;19.50;;;11.67;;
46391;SDS011;32098;49.448;7.904;2023-02-11T15:50:48;16.23;;;10.20;;
46391;SDS011;32098;49.448;7.904;2023-02-11T15:53:21;17.93;;;11.57;;
46391;SDS011;32098;49.448;7.904;2023-02-11T15:56:13;15.63;;;10.67;;
46391;SDS011;32098;49.448;7.904;2023-02-11T15:58:46;18.27;;;11.60;;
46391;SDS011;32098;49.448;7.904;2023-02-11T16:01:14;15.97;;;11.07;;
46391;SDS011;32098;49.448;7.904;2023-02-11T16:03:41;17.90;;;10.63;;
46391;SDS011;32098;49.448;7.904;2023-02-11T16:06:15;16.73;;;11.13;;
46391;SDS011;32098;49.448;7.904;2023-02-11T16:09:01;16.27;;;10.97;;
46391;SDS011;32098;49.448;7.904;2023-02-11T16:11:52;17.73;;;11.37;;
46391;SDS011;32098;49.448;7.904;2023-02-11T16:16:52;18.27;;;11.80;;
46391;SDS011;32098;49.448;7.904;2023-02-11T16:19:21;19.43;;;12.87;;
46391;SDS011;32098;49.448;7.904;2023-02-11T16:21:51;19.77;;;12.67;;
46391;SDS011;32098;49.448;7.904;2023-02-11T16:24:32;17.40;;;12.10;;
46391;SDS011;32098;49.448;7.904;2023-02-11T16:27:05;17.10;;;11.23;;
46391;SDS011;32098;49.448;7.904;2023-02-11T16:29:44;20.50;;;12.13;;
46391;SDS011;32098;49.448;7.904;2023-02-11T16:32:16;20.23;;;11.60;;
46391;SDS011;32098;49.448;7.904;2023-02-11T16:34:43;18.43;;;11.33;;
46391;SDS011;32098;49.448;7.904;2023-02-11T16:37:10;19.83;;;12.63;;
46391;SDS011;32098;49.448;7.904;2023-02-11T16:39:37;17.87;;;12.07;;
46391;SDS011;32098;49.448;7.904;2023-02-11T16:42:03;18.67;;;11.83;;
46391;SDS011;32098;49.448;7.904;2023-02-11T16:44:33;18.27;;;11.93;;
46391;SDS011;32098;49.448;7.904;2023-02-11T16:47:00;18.77;;;12.20;;
46391;SDS011;32098;49.448;7.904;2023-02-11T16:49:39;18.03;;;11.13;;
46391;SDS011;32098;49.448;7.904;2023-02-11T16:52:07;17.67;;;11.17;;
46391;SDS011;32098;49.448;7.904;2023-02-11T16:54:37;24.57;;;16.40;;
46391;SDS011;32098;49.448;7.904;2023-02-11T16:57:12;20.20;;;14.87;;
46391;SDS011;32098;49.448;7.904;2023-02-11T16:59:41;20.70;;;15.10;;
46391;SDS011;32098;49.448;7.904;2023-02-11T17:02:10;17.70;;;13.00;;
46391;SDS011;32098;49.448;7.904;2023-02-11T17:04:40;18.40;;;12.80;;
46391;SDS011;32098;49.448;7.904;2023-02-11T17:07:08;18.13;;;12.07;;